createdAt,value
2023-02-05T00:00:40.912Z,12.38
2023-02-05T00:03:07.963Z,14.57
2023-02-05T00:05:35.483Z,13.80
2023-02-05T00:08:02.701Z,14.52
2023-02-05T00:10:29.719Z,13.85
2023-02-05T00:12:56.828Z,14.75
2023-02-05T00:15:23.858Z,14.15
2023-02-05T00:17:50.863Z,16.17
2023-02-05T00:20:17.984Z,14.15
2023-02-05T00:22:45.087Z,14.25
2023-02-05T00:25:12.136Z,12.55
2023-02-05T00:27:39.159Z,14.35
2023-02-05T00:30:06.471Z,12.43
2023-02-05T00:32:33.518Z,13.90
2023-02-05T00:35:00.546Z,13.30
2023-02-05T00:37:27.569Z,14.18
2023-02-05T00:39:54.593Z,13.13
2023-02-05T00:42:21.628Z,14.43
2023-02-05T00:44:48.720Z,12.80
2023-02-05T00:47:15.714Z,15.15
2023-02-05T00:49:42.758Z,14.20
2023-02-05T00:52:09.911Z,13.65
2023-02-05T00:54:36.970Z,13.80
2023-02-05T00:57:04.599Z,14.35
2023-02-05T00:59:31.600Z,13.27
2023-02-05T01:01:58.619Z,12.55
2023-02-05T01:04:25.636Z,13.68
2023-02-05T01:06:52.665Z,13.48
2023-02-05T01:09:19.656Z,14.40
2023-02-05T01:11:46.710Z,12.93
2023-02-05T01:14:13.752Z,12.50
2023-02-05T01:16:40.756Z,12.05
2023-02-05T01:19:07.778Z,13.80
2023-02-05T01:21:36.233Z,12.88
2023-02-05T01:24:03.547Z,12.93
2023-02-05T01:26:30.566Z,13.30
2023-02-05T01:28:57.646Z,12.35
2023-02-05T01:31:25.670Z,14.18
2023-02-05T01:33:52.823Z,12.38
2023-02-05T01:36:19.820Z,12.88
2023-02-05T01:38:46.888Z,12.00
2023-02-05T01:41:14.026Z,13.40
2023-02-05T01:43:41.175Z,11.70
2023-02-05T01:46:21.198Z,13.57
2023-02-05T01:48:50.895Z,12.10
2023-02-05T01:51:18.297Z,11.90
2023-02-05T01:53:46.664Z,13.00
2023-02-05T01:56:17.978Z,12.65
2023-02-05T01:59:03.304Z,12.35
2023-02-05T02:01:30.363Z,11.82
2023-02-05T02:03:58.455Z,12.52
2023-02-05T02:06:25.613Z,11.63
2023-02-05T02:08:53.151Z,12.55
2023-02-05T02:11:22.466Z,10.30
2023-02-05T02:13:51.158Z,11.63
2023-02-05T02:16:18.285Z,12.23
2023-02-05T02:18:45.616Z,11.40
2023-02-05T02:21:31.445Z,10.40
2023-02-05T02:24:10.582Z,10.50
2023-02-05T02:26:56.432Z,10.02
2023-02-05T02:29:29.679Z,10.07
2023-02-05T02:32:00.694Z,10.52
2023-02-05T02:34:38.020Z,8.40
2023-02-05T02:37:10.498Z,9.60
2023-02-05T02:39:48.795Z,9.80
2023-02-05T02:42:29.682Z,10.40
2023-02-05T02:44:58.206Z,9.95
2023-02-05T02:47:27.008Z,10.75
2023-02-05T02:50:00.223Z,10.82
2023-02-05T02:52:27.699Z,11.75
2023-02-05T02:54:56.711Z,12.20
2023-02-05T02:57:25.772Z,11.10
2023-02-05T02:59:53.976Z,11.00
2023-02-05T03:02:20.996Z,11.80
2023-02-05T03:04:52.178Z,10.68
2023-02-05T03:07:24.867Z,11.63
2023-02-05T03:09:56.737Z,12.00
2023-02-05T03:12:23.773Z,11.68
2023-02-05T03:14:51.156Z,11.30
2023-02-05T03:17:21.026Z,11.60
2023-02-05T03:19:49.484Z,11.40
2023-02-05T03:22:16.571Z,12.80
2023-02-05T03:24:43.629Z,12.57
2023-02-05T03:27:10.691Z,12.13
2023-02-05T03:29:44.355Z,12.45
2023-02-05T03:32:11.383Z,9.57
2023-02-05T03:34:46.463Z,10.60
2023-02-05T03:37:34.020Z,9.95
2023-02-05T03:40:24.403Z,9.38
2023-02-05T03:43:05.842Z,7.78
2023-02-05T03:45:44.101Z,9.75
2023-02-05T03:48:34.394Z,8.85
2023-02-05T03:51:22.617Z,9.95
2023-02-05T03:53:58.565Z,10.73
2023-02-05T03:56:28.572Z,9.98
2023-02-05T03:58:57.209Z,11.00
2023-02-05T04:01:24.555Z,10.32
2023-02-05T04:03:51.680Z,10.30
2023-02-05T04:06:19.084Z,9.38
2023-02-05T04:08:46.205Z,9.85
2023-02-05T04:11:13.292Z,8.77
2023-02-05T04:13:40.316Z,9.13
2023-02-05T04:16:07.438Z,8.65
2023-02-05T04:18:34.481Z,9.13
2023-02-05T04:21:01.773Z,9.25
2023-02-05T04:23:28.900Z,9.35
2023-02-05T04:25:56.533Z,9.50
2023-02-05T04:28:23.588Z,8.38
2023-02-05T04:30:50.611Z,9.07
2023-02-05T04:33:17.669Z,8.45
2023-02-05T04:35:44.704Z,8.65
2023-02-05T04:38:11.790Z,9.60
2023-02-05T04:40:38.825Z,9.23
2023-02-05T04:43:05.990Z,10.40
2023-02-05T04:45:33.630Z,8.20
2023-02-05T04:48:01.171Z,8.80
2023-02-05T04:50:28.279Z,7.82
2023-02-05T04:52:55.385Z,7.93
2023-02-05T04:55:22.496Z,7.38
2023-02-05T04:57:52.348Z,10.05
2023-02-05T05:00:20.008Z,7.32
2023-02-05T05:02:47.057Z,7.75
2023-02-05T05:05:14.224Z,7.25
2023-02-05T05:07:41.233Z,6.95
2023-02-05T05:10:08.420Z,9.20
2023-02-05T05:12:36.591Z,7.22
2023-02-05T05:15:04.450Z,6.78
2023-02-05T05:17:31.831Z,6.65
2023-02-05T05:19:58.862Z,7.57
2023-02-05T05:22:25.951Z,5.85
2023-02-05T05:24:52.957Z,6.55
2023-02-05T05:27:20.036Z,6.40
2023-02-05T05:29:47.043Z,7.32
2023-02-05T05:32:14.834Z,6.75
2023-02-05T05:34:41.901Z,7.40
2023-02-05T05:37:09.077Z,6.93
2023-02-05T05:39:56.368Z,6.72
2023-02-05T05:42:43.658Z,7.28
2023-02-05T05:45:11.214Z,7.32
2023-02-05T05:47:38.284Z,8.05
2023-02-05T05:50:05.444Z,7.65
2023-02-05T05:52:32.961Z,8.20
2023-02-05T05:55:00.039Z,7.15
2023-02-05T05:57:27.111Z,7.03
2023-02-05T05:59:54.248Z,8.45
2023-02-05T06:02:21.290Z,7.95
2023-02-05T06:04:48.464Z,8.27
2023-02-05T06:07:15.613Z,7.70
2023-02-05T06:09:42.624Z,8.68
2023-02-05T06:12:11.565Z,8.45
2023-02-05T06:14:38.792Z,7.53
2023-02-05T06:17:07.305Z,7.32
2023-02-05T06:19:34.320Z,8.57
2023-02-05T06:22:04.876Z,8.40
2023-02-05T06:24:31.882Z,9.35
2023-02-05T06:26:58.909Z,8.13
2023-02-05T06:29:25.944Z,9.75
2023-02-05T06:31:53.125Z,8.50
2023-02-05T06:34:20.234Z,8.80
2023-02-05T06:36:47.353Z,9.57
2023-02-05T06:39:14.413Z,9.40
2023-02-05T06:41:41.482Z,10.18
2023-02-05T06:44:08.488Z,10.82
2023-02-05T06:46:35.745Z,8.60
2023-02-05T06:49:02.845Z,10.10
2023-02-05T06:51:29.910Z,8.98
2023-02-05T06:53:57.414Z,9.75
2023-02-05T06:56:25.040Z,9.43
2023-02-05T06:58:52.227Z,9.43
2023-02-05T07:01:19.413Z,9.27
2023-02-05T07:03:48.428Z,9.10
2023-02-05T07:06:15.541Z,9.20
2023-02-05T07:08:42.928Z,9.20
2023-02-05T07:11:10.047Z,12.00
2023-02-05T07:13:37.071Z,15.10
2023-02-05T07:16:05.254Z,10.60
2023-02-05T07:18:33.191Z,11.20
2023-02-05T07:21:00.277Z,10.98
2023-02-05T07:23:27.362Z,10.60
2023-02-05T07:25:54.427Z,10.05
2023-02-05T07:28:21.499Z,8.88
2023-02-05T07:30:49.742Z,10.13
2023-02-05T07:33:17.239Z,9.32
2023-02-05T07:35:44.296Z,8.55
2023-02-05T07:38:11.528Z,9.10
2023-02-05T07:40:38.564Z,8.85
2023-02-05T07:43:05.583Z,9.65
2023-02-05T07:45:32.850Z,10.82
2023-02-05T07:48:00.046Z,9.18
2023-02-05T07:50:27.097Z,9.40
2023-02-05T07:52:54.159Z,10.55
2023-02-05T07:55:21.223Z,11.20
2023-02-05T07:57:48.239Z,10.95
2023-02-05T08:00:15.385Z,10.30
2023-02-05T08:02:42.393Z,10.18
2023-02-05T08:05:09.502Z,9.23
2023-02-05T08:07:37.475Z,10.77
2023-02-05T08:10:05.532Z,10.23
2023-02-05T08:12:32.618Z,10.45
2023-02-05T08:14:59.850Z,9.98
2023-02-05T08:17:26.875Z,10.82
2023-02-05T08:19:53.896Z,9.40
2023-02-05T08:22:21.037Z,8.98
2023-02-05T08:24:48.041Z,8.60
2023-02-05T08:27:15.184Z,9.75
2023-02-05T08:29:42.259Z,8.45
2023-02-05T08:32:09.316Z,8.85
2023-02-05T08:34:38.154Z,9.25
2023-02-05T08:37:05.238Z,8.50
2023-02-05T08:39:32.235Z,8.85
2023-02-05T08:41:59.226Z,9.85
2023-02-05T08:44:26.303Z,8.50
2023-02-05T08:46:53.318Z,9.07
2023-02-05T08:49:20.560Z,10.30
2023-02-05T08:51:48.029Z,10.38
2023-02-05T08:54:15.380Z,10.60
2023-02-05T08:56:46.506Z,10.43
2023-02-05T08:59:13.684Z,7.80
2023-02-05T09:01:41.111Z,10.10
2023-02-05T09:04:08.365Z,8.50
2023-02-05T09:06:36.865Z,9.65
2023-02-05T09:09:03.930Z,10.32
2023-02-05T09:11:31.069Z,10.57
2023-02-05T09:13:58.733Z,11.63
2023-02-05T09:16:26.353Z,11.50
2023-02-05T09:18:57.090Z,10.30
2023-02-05T09:21:24.677Z,11.68
2023-02-05T09:23:52.103Z,11.10
2023-02-05T09:26:19.342Z,11.13
2023-02-05T09:28:46.667Z,10.18
2023-02-05T09:31:14.992Z,9.20
2023-02-05T09:33:42.049Z,8.10
2023-02-05T09:36:10.503Z,9.40
2023-02-05T09:38:37.700Z,9.43
2023-02-05T09:41:08.594Z,9.27
2023-02-05T09:43:42.748Z,9.85
2023-02-05T09:46:17.998Z,10.40
2023-02-05T09:48:49.626Z,9.65
2023-02-05T09:51:18.112Z,10.88
2023-02-05T09:53:48.128Z,8.80
2023-02-05T09:56:16.364Z,9.55
2023-02-05T09:58:45.465Z,11.23
2023-02-05T10:01:15.682Z,10.55
2023-02-05T10:03:47.658Z,9.05
2023-02-05T10:06:21.990Z,11.60
2023-02-05T10:08:48.977Z,10.32
2023-02-05T10:11:27.896Z,10.18
2023-02-05T10:14:03.541Z,11.00
2023-02-05T10:16:33.671Z,9.70
2023-02-05T10:19:19.520Z,9.02
2023-02-05T10:21:49.684Z,11.55
2023-02-05T10:24:25.943Z,9.82
2023-02-05T10:26:54.113Z,9.82
2023-02-05T10:29:42.662Z,10.85
2023-02-05T10:32:23.539Z,10.38
2023-02-05T10:34:57.967Z,11.43
2023-02-05T10:37:51.524Z,10.20
2023-02-05T10:40:46.550Z,7.70
2023-02-05T10:43:26.565Z,6.40
2023-02-05T10:45:54.274Z,5.22
2023-02-05T10:48:40.644Z,5.60
2023-02-05T10:51:10.025Z,5.22
2023-02-05T10:53:37.501Z,4.18
2023-02-05T10:56:05.254Z,4.90
2023-02-05T10:58:51.276Z,3.92
2023-02-05T11:01:20.706Z,4.32
2023-02-05T11:04:02.242Z,4.50
2023-02-05T11:06:31.898Z,3.05
2023-02-05T11:08:59.203Z,3.40
2023-02-05T11:11:30.392Z,2.80
2023-02-05T11:14:06.550Z,2.55
2023-02-05T11:16:41.734Z,2.33
2023-02-05T11:19:24.880Z,1.90
2023-02-05T11:21:54.034Z,1.98
2023-02-05T11:24:31.427Z,1.73
2023-02-05T11:27:16.932Z,1.77
2023-02-05T11:29:44.120Z,1.65
2023-02-05T11:32:40.347Z,2.10
2023-02-05T11:35:18.356Z,1.65
2023-02-05T11:37:46.419Z,2.38
2023-02-05T11:40:20.672Z,1.52
2023-02-05T11:42:48.975Z,1.30
2023-02-05T11:45:19.942Z,0.98
2023-02-05T11:47:47.105Z,1.50
2023-02-05T11:50:24.663Z,1.23
2023-02-05T11:52:52.441Z,1.60
2023-02-05T11:55:31.895Z,1.45
2023-02-05T11:58:03.805Z,1.30
2023-02-05T12:00:31.111Z,1.08
2023-02-05T12:03:16.764Z,1.60
2023-02-05T12:05:47.563Z,1.10
2023-02-05T12:08:20.388Z,2.10
2023-02-05T12:11:01.202Z,1.00
2023-02-05T12:13:47.132Z,1.27
2023-02-05T12:16:42.750Z,1.08
2023-02-05T12:19:19.704Z,0.90
2023-02-05T12:21:50.226Z,1.08
2023-02-05T12:24:33.517Z,0.93
2023-02-05T12:27:08.489Z,1.60
2023-02-05T12:29:44.709Z,1.08
2023-02-05T12:32:17.774Z,1.25
2023-02-05T12:34:44.744Z,1.60
2023-02-05T12:37:30.431Z,1.50
2023-02-05T12:40:08.233Z,2.10
2023-02-05T12:42:50.485Z,2.20
2023-02-05T12:45:30.630Z,3.00
2023-02-05T12:48:16.257Z,3.40
2023-02-05T12:50:49.450Z,3.75
2023-02-05T12:53:36.089Z,4.60
2023-02-05T12:56:22.663Z,4.60
2023-02-05T12:58:53.628Z,4.53
2023-02-05T13:01:26.054Z,4.40
2023-02-05T13:04:01.164Z,4.18
2023-02-05T13:06:37.864Z,4.10
2023-02-05T13:09:07.876Z,3.65
2023-02-05T13:11:37.588Z,3.53
2023-02-05T13:14:22.064Z,4.10
2023-02-05T13:16:55.231Z,3.63
2023-02-05T13:19:25.929Z,4.20
2023-02-05T13:22:15.757Z,3.80
2023-02-05T13:25:08.328Z,3.20
2023-02-05T13:27:58.136Z,3.58
2023-02-05T13:30:27.237Z,3.25
2023-02-05T13:32:56.664Z,3.20
2023-02-05T13:35:24.732Z,3.47
2023-02-05T13:38:21.146Z,3.05
2023-02-05T13:41:14.621Z,3.35
2023-02-05T13:43:47.649Z,4.10
2023-02-05T13:46:28.650Z,3.40
2023-02-05T13:49:14.918Z,3.00
2023-02-05T13:52:00.429Z,2.97
2023-02-05T13:54:39.707Z,2.45
2023-02-05T13:57:36.663Z,3.53
2023-02-05T14:00:04.689Z,2.88
2023-02-05T14:02:41.265Z,2.55
2023-02-05T14:05:09.287Z,2.78
2023-02-05T14:07:44.953Z,2.83
2023-02-05T14:10:26.190Z,2.40
2023-02-05T14:12:53.500Z,2.30
2023-02-05T14:15:20.552Z,1.83
2023-02-05T14:17:47.643Z,2.33
2023-02-05T14:20:26.947Z,1.60
2023-02-05T14:22:58.054Z,1.90
2023-02-05T14:25:41.579Z,1.83
2023-02-05T14:28:28.551Z,2.13
2023-02-05T14:31:03.652Z,1.92
2023-02-05T14:33:35.510Z,1.73
2023-02-05T14:36:18.255Z,1.75
2023-02-05T14:38:46.378Z,1.60
2023-02-05T14:41:14.926Z,2.13
2023-02-05T14:43:42.773Z,2.40
2023-02-05T14:46:28.642Z,1.70
2023-02-05T14:48:58.236Z,1.50
2023-02-05T14:51:39.358Z,1.95
2023-02-05T14:54:06.348Z,2.67
2023-02-05T14:56:39.988Z,2.25
2023-02-05T14:59:29.902Z,2.10
2023-02-05T15:01:57.850Z,1.92
2023-02-05T15:04:24.904Z,1.92
2023-02-05T15:06:52.930Z,2.22
2023-02-05T15:09:24.293Z,1.80
2023-02-05T15:12:03.326Z,2.80
2023-02-05T15:14:56.848Z,2.00
2023-02-05T15:17:30.035Z,2.00
2023-02-05T15:20:17.310Z,2.22
2023-02-05T15:22:47.036Z,2.90
2023-02-05T15:25:26.089Z,2.10
2023-02-05T15:27:56.359Z,2.10
2023-02-05T15:30:26.008Z,3.20
2023-02-05T15:32:58.157Z,3.05
2023-02-05T15:35:26.636Z,2.33
2023-02-05T15:37:55.992Z,1.30
2023-02-05T15:40:25.299Z,1.67
2023-02-05T15:42:59.431Z,2.10
2023-02-05T15:45:28.327Z,2.42
2023-02-05T15:47:59.667Z,2.10
2023-02-05T15:50:27.459Z,1.70
2023-02-05T15:52:54.548Z,1.70
2023-02-05T15:55:22.204Z,1.40
2023-02-05T15:57:49.522Z,1.80
2023-02-05T16:00:21.159Z,1.77
2023-02-05T16:02:56.806Z,1.92
2023-02-05T16:05:24.282Z,1.55
2023-02-05T16:07:58.971Z,1.50
2023-02-05T16:10:27.431Z,2.25
2023-02-05T16:13:03.556Z,2.10
2023-02-05T16:15:34.043Z,2.55
2023-02-05T16:18:03.365Z,2.72
2023-02-05T16:20:33.694Z,2.20
2023-02-05T16:23:02.639Z,3.22
2023-02-05T16:25:29.745Z,3.40
2023-02-05T16:27:58.236Z,2.45
2023-02-05T16:30:40.539Z,2.20
2023-02-05T16:33:08.378Z,2.10
2023-02-05T16:35:38.062Z,2.88
2023-02-05T16:38:09.127Z,2.95
2023-02-05T16:40:42.994Z,3.22
2023-02-05T16:43:19.382Z,3.97
2023-02-05T16:46:20.873Z,3.50
2023-02-05T16:48:48.016Z,11.25
2023-02-05T16:51:32.748Z,4.82
2023-02-05T16:54:23.055Z,3.60
2023-02-05T16:56:56.226Z,3.00
2023-02-05T16:59:24.924Z,2.50
2023-02-05T17:01:52.813Z,2.10
2023-02-05T17:04:26.757Z,1.75
2023-02-05T17:06:58.260Z,2.28
2023-02-05T17:09:28.261Z,2.20
2023-02-05T17:11:55.353Z,1.77
2023-02-05T17:14:22.473Z,1.88
2023-02-05T17:17:02.840Z,2.03
2023-02-05T17:19:30.884Z,1.75
2023-02-05T17:22:17.599Z,1.52
2023-02-05T17:24:48.679Z,1.70
2023-02-05T17:27:22.197Z,1.60
2023-02-05T17:29:49.522Z,1.75
2023-02-05T17:32:17.806Z,1.45
2023-02-05T17:34:48.431Z,2.30
2023-02-05T17:37:17.658Z,2.95
2023-02-05T17:39:45.011Z,1.63
2023-02-05T17:42:22.225Z,1.70
2023-02-05T17:44:49.466Z,2.20
2023-02-05T17:47:16.585Z,2.40
2023-02-05T17:49:43.630Z,1.95
2023-02-05T17:52:10.948Z,2.38
2023-02-05T17:54:38.039Z,2.50
2023-02-05T17:57:15.451Z,2.42
2023-02-05T17:59:44.797Z,2.33
2023-02-05T18:02:12.606Z,1.80
2023-02-05T18:04:40.194Z,2.20
2023-02-05T18:07:22.488Z,2.05
2023-02-05T18:09:49.627Z,4.43
2023-02-05T18:12:16.638Z,2.97
2023-02-05T18:14:43.750Z,4.00
2023-02-05T18:17:10.795Z,3.13
2023-02-05T18:19:37.864Z,4.22
2023-02-05T18:22:07.836Z,6.60
2023-02-05T18:24:36.971Z,3.50
2023-02-05T18:27:08.190Z,3.00
2023-02-05T18:29:35.803Z,4.40
2023-02-05T18:32:02.918Z,3.70
2023-02-05T18:34:29.991Z,3.45
2023-02-05T18:36:57.454Z,3.70
2023-02-05T18:39:28.509Z,3.58
2023-02-05T18:41:56.662Z,3.92
2023-02-05T18:44:24.056Z,4.00
2023-02-05T18:46:51.177Z,5.18
2023-02-05T18:49:18.280Z,3.25
2023-02-05T18:51:45.315Z,3.60
2023-02-05T18:54:12.340Z,4.13
2023-02-05T18:56:39.461Z,3.13
2023-02-05T18:59:07.871Z,2.88
2023-02-05T19:01:36.266Z,3.53
2023-02-05T19:04:04.781Z,3.58
2023-02-05T19:06:32.221Z,5.40
2023-02-05T19:09:00.348Z,16.42
2023-02-05T19:11:28.736Z,4.15
2023-02-05T19:14:01.400Z,4.10
2023-02-05T19:16:29.410Z,2.95
2023-02-05T19:18:57.096Z,3.85
2023-02-05T19:21:24.743Z,4.75
2023-02-05T19:23:54.347Z,4.20
2023-02-05T19:26:22.682Z,4.65
2023-02-05T19:28:55.843Z,5.00
2023-02-05T19:31:23.624Z,3.72
2023-02-05T19:33:50.781Z,4.60
2023-02-05T19:36:19.809Z,5.30
2023-02-05T19:38:46.933Z,5.18
2023-02-05T19:41:15.305Z,8.25
2023-02-05T19:43:49.771Z,6.00
2023-02-05T19:46:17.901Z,6.20
2023-02-05T19:48:45.105Z,5.38
2023-02-05T19:51:13.242Z,4.70
2023-02-05T19:53:41.640Z,4.28
2023-02-05T19:56:10.330Z,6.03
2023-02-05T19:58:38.680Z,3.00
2023-02-05T20:01:12.161Z,4.60
2023-02-05T20:03:39.349Z,5.57
2023-02-05T20:06:06.775Z,4.05
2023-02-05T20:08:35.987Z,4.97
2023-02-05T20:11:03.381Z,3.67
2023-02-05T20:13:31.585Z,3.88
2023-02-05T20:16:06.508Z,3.15
2023-02-05T20:18:34.055Z,3.05
2023-02-05T20:21:01.110Z,2.67
2023-02-05T20:23:28.139Z,4.20
2023-02-05T20:25:58.676Z,3.85
2023-02-05T20:28:26.513Z,3.47
2023-02-05T20:31:12.649Z,3.45
2023-02-05T20:33:39.952Z,3.10
2023-02-05T20:36:08.072Z,3.05
2023-02-05T20:38:41.290Z,2.40
2023-02-05T20:41:15.373Z,4.50
2023-02-05T20:43:42.734Z,2.92
2023-02-05T20:46:10.668Z,5.70
2023-02-05T20:48:38.478Z,6.60
2023-02-05T20:51:06.997Z,3.10
2023-02-05T20:53:35.220Z,2.63
2023-02-05T20:56:06.218Z,3.50
2023-02-05T20:58:33.528Z,4.03
2023-02-05T21:01:07.860Z,3.00
2023-02-05T21:03:35.466Z,3.10
2023-02-05T21:06:02.613Z,2.92
2023-02-05T21:08:29.706Z,5.28
2023-02-05T21:10:56.732Z,3.40
2023-02-05T21:13:23.815Z,3.95
2023-02-05T21:15:54.805Z,4.03
2023-02-05T21:18:22.240Z,3.63
2023-02-05T21:20:49.597Z,3.70
2023-02-05T21:23:16.886Z,3.45
2023-02-05T21:25:44.459Z,3.03
2023-02-05T21:28:11.679Z,2.90
2023-02-05T21:30:39.327Z,3.50
2023-02-05T21:33:06.416Z,3.58
2023-02-05T21:35:33.427Z,2.67
2023-02-05T21:38:00.456Z,3.03
2023-02-05T21:40:27.454Z,2.40
2023-02-05T21:42:54.511Z,2.63
2023-02-05T21:45:21.563Z,4.38
2023-02-05T21:47:48.684Z,3.05
2023-02-05T21:50:15.908Z,2.88
2023-02-05T21:52:43.012Z,3.35
2023-02-05T21:55:10.103Z,3.20
2023-02-05T21:57:37.140Z,2.53
2023-02-05T22:00:05.716Z,2.95
2023-02-05T22:02:32.716Z,3.10
2023-02-05T22:04:59.736Z,3.10
2023-02-05T22:07:26.932Z,3.35
2023-02-05T22:09:53.940Z,3.25
2023-02-05T22:12:21.004Z,2.70
2023-02-05T22:14:48.460Z,3.67
2023-02-05T22:17:15.634Z,3.50
2023-02-05T22:19:43.254Z,3.10
2023-02-05T22:22:10.280Z,2.70
2023-02-05T22:24:37.340Z,3.20
2023-02-05T22:27:04.371Z,3.58
2023-02-05T22:29:31.474Z,3.03
2023-02-05T22:31:58.569Z,3.22
2023-02-05T22:34:25.680Z,3.03
2023-02-05T22:36:52.732Z,3.50
2023-02-05T22:39:19.722Z,4.35
2023-02-05T22:41:46.720Z,3.90
2023-02-05T22:44:13.730Z,3.92
2023-02-05T22:46:42.143Z,3.97
2023-02-05T22:49:09.394Z,4.82
2023-02-05T22:51:37.591Z,4.40
2023-02-05T22:54:04.853Z,4.05
2023-02-05T22:56:32.241Z,4.28
2023-02-05T22:59:02.682Z,3.80
2023-02-05T23:01:31.116Z,4.75
2023-02-05T23:03:58.574Z,5.05
2023-02-05T23:06:27.085Z,5.60
2023-02-05T23:08:59.904Z,4.60
2023-02-05T23:11:27.427Z,4.88
2023-02-05T23:13:54.588Z,4.80
2023-02-05T23:16:22.907Z,4.43
2023-02-05T23:18:50.650Z,6.55
2023-02-05T23:21:22.400Z,5.20
2023-02-05T23:23:50.122Z,5.22
2023-02-05T23:26:18.268Z,5.53
2023-02-05T23:28:45.777Z,6.03
2023-02-05T23:31:13.040Z,6.00
2023-02-05T23:33:40.275Z,4.75
2023-02-05T23:36:07.698Z,5.55
2023-02-05T23:38:35.208Z,5.78
2023-02-05T23:41:02.613Z,5.65
2023-02-05T23:43:31.373Z,5.63
2023-02-05T23:45:58.394Z,5.45
2023-02-05T23:48:25.465Z,5.50
2023-02-05T23:50:53.194Z,5.38
2023-02-05T23:53:21.031Z,4.97
2023-02-05T23:55:49.136Z,5.05
2023-02-05T23:58:16.948Z,5.15
